Time;durP1;ratioP1;P1;durP2;ratioP2;P2;SDS_P1;SDS_P2;PMS_P1;PMS_P2;Temp;Humidity;BMP_temperature;BMP_pressure;BME280_temperature;BME280_humidity;BME280_pressure;Samples;Min_cycle;Max_cycle;Signal;HPM_P1;HPM_P2
2022/12/23 00:01:32;;;;;;;;;;;;;;;5.22;74.26;98794.75;4963319;28;2293;-86
2022/12/23 00:03:59;;;;;;;;;;;;;;;5.14;74.43;98788.94;4968652;28;2158;-87
2022/12/23 00:06:26;;;;;;;;;;;;;;;5.02;74.83;98791.56;4964818;28;2325;-87
2022/12/23 00:08:56;;;;;;;;;;;;;;;5.15;74.46;98796.72;4976903;28;2500;-87
2022/12/23 00:11:23;;;;;;;;;;;;;;;5.12;74.54;98799.84;4983176;28;2144;-87
2022/12/23 00:16:34;;;;;;;;;;;;;;;5.17;74.62;98804.47;4968013;28;2262;-86
2022/12/23 00:19:01;;;;;;;;;;;;;;;5.21;74.34;98813.69;4963455;28;2215;-88
2022/12/23 00:21:27;;;;;;;;;;;;;;;5.12;74.60;98815.84;4975539;28;2237;-88
2022/12/23 00:23:54;;;;;;;;;;;;;;;5.26;74.15;98816.47;4978593;28;2094;-87
2022/12/23 00:26:21;;;;;;;;;;;;;;;5.12;74.52;98821.19;4961773;28;2570;-87
2022/12/23 00:28:48;;;;;;;;;;;;;;;5.31;74.00;98827.28;4974871;28;2215;-87
2022/12/23 00:31:17;;;;;;;;;;;;;;;5.18;74.46;98840.81;4976033;28;2248;-87
2022/12/23 00:33:44;;;;;;;;;;;;;;;5.22;74.37;98828.66;4979446;28;2138;-86
2022/12/23 00:36:11;;;;;;;;;;;;;;;5.34;73.74;98844.69;4977717;28;2042;-88
2022/12/23 00:44:06;;;;;;;;;;;;;;;5.32;74.02;98844.91;4977617;28;2104;-87
2022/12/23 00:46:34;;;;;;;;;;;;;;;5.36;73.82;98850.63;4977543;28;2109;-86
2022/12/23 00:51:45;;;;;;;;;;;;;;;5.49;73.56;98861.13;4960181;28;2188;-87
2022/12/23 00:54:12;;;;;;;;;;;;;;;5.46;73.47;98862.38;4958307;28;2087;-87
2022/12/23 00:56:39;;;;;;;;;;;;;;;5.45;73.45;98868.78;4960942;28;2074;-85
2022/12/23 00:59:05;;;;;;;;;;;;;;;5.41;73.67;98859.59;4974205;28;2134;-86
2022/12/23 01:07:00;;;;;;;;;;;;;;;5.48;73.51;98864.84;4973905;28;2249;-87
2022/12/23 01:09:27;;;;;;;;;;;;;;;5.49;73.38;98869.13;4971540;28;1653;-87
2022/12/23 01:11:54;;;;;;;;;;;;;;;5.54;73.33;98865.78;4952456;28;2156;-85
2022/12/23 01:14:21;;;;;;;;;;;;;;;5.54;73.04;98871.13;4978906;28;2119;-86
2022/12/23 01:16:47;;;;;;;;;;;;;;;5.55;73.13;98876.22;4964198;28;2157;-86
2022/12/23 01:19:14;;;;;;;;;;;;;;;5.63;72.93;98877.78;4961466;28;2071;-86
2022/12/23 01:21:40;;;;;;;;;;;;;;;5.61;72.90;98879.84;4962105;28;2526;-86
2022/12/23 01:24:07;;;;;;;;;;;;;;;5.59;72.98;98882.75;4958850;28;2116;-85
2022/12/23 01:26:34;;;;;;;;;;;;;;;5.66;72.98;98883.47;4947262;28;2397;-87
2022/12/23 01:29:00;;;;;;;;;;;;;;;5.66;72.69;98879.97;4963044;28;2502;-86
2022/12/23 01:31:27;;;;;;;;;;;;;;;5.58;73.11;98886.44;4963099;28;2287;-86
2022/12/23 01:33:53;;;;;;;;;;;;;;;5.54;73.23;98898.66;4976152;28;2455;-86
2022/12/23 01:36:20;;;;;;;;;;;;;;;5.66;73.02;98896.00;4975669;28;2879;-85
2022/12/23 01:38:46;;;;;;;;;;;;;;;5.55;73.17;98905.59;4964197;28;2352;-86
2022/12/23 01:42:42;;;;;;;;;;;;;;;5.56;73.16;98906.41;4959367;28;2095;-85
2022/12/23 01:43:59;;;;;;;;;;;;;;;5.61;73.11;98907.38;4960805;28;2094;-85
2022/12/23 01:46:25;;;;;;;;;;;;;;;5.50;73.48;98916.16;4962528;28;2147;-85
2022/12/23 01:48:52;;;;;;;;;;;;;;;5.55;73.24;98921.63;4962270;28;2089;-85
2022/12/23 01:51:18;;;;;;;;;;;;;;;5.64;72.74;98914.09;4964395;28;2340;-85
2022/12/23 01:53:45;;;;;;;;;;;;;;;5.68;72.94;98923.31;4977575;28;2102;-85
2022/12/23 01:56:11;;;;;;;;;;;;;;;5.55;73.21;98924.28;4962725;28;2481;-84
2022/12/23 01:58:38;;;;;;;;;;;;;;;5.57;73.27;98924.09;4981025;28;2114;-84
2022/12/23 02:03:49;;;;;;;;;;;;;;;5.60;73.15;98919.09;4965970;28;2081;-85
2022/12/23 02:09:18;;;;;;;;;;;;;;;5.48;73.44;98918.25;4982068;28;2058;-84
2022/12/23 02:11:45;;;;;;;;;;;;;;;5.54;73.55;98920.00;4964409;28;2111;-84
2022/12/23 02:17:11;;;;;;;;;;;;;;;5.56;73.27;98927.78;4902206;29;2066;-84
2022/12/23 02:19:37;;;;;;;;;;;;;;;5.60;73.19;98928.97;4899057;29;2302;-84
2022/12/23 02:22:04;;;;;;;;;;;;;;;5.52;73.38;98934.63;4936986;28;2489;-84
2022/12/23 02:24:31;;;;;;;;;;;;;;;5.55;73.53;98939.50;4964271;28;2039;-83
2022/12/23 02:26:57;;;;;;;;;;;;;;;5.53;73.36;98938.91;4960369;28;2121;-84
2022/12/23 02:29:24;;;;;;;;;;;;;;;5.53;73.38;98944.25;4966171;28;2264;-84
2022/12/23 02:31:51;;;;;;;;;;;;;;;5.56;73.28;98947.31;4967854;28;2163;-83
2022/12/23 02:34:17;;;;;;;;;;;;;;;5.52;73.41;98962.13;4965785;28;2091;-84
2022/12/23 02:36:44;;;;;;;;;;;;;;;5.54;73.38;98951.25;4977733;28;2169;-83
2022/12/23 02:39:10;;;;;;;;;;;;;;;5.59;73.16;98960.22;4958203;28;2188;-85
2022/12/23 02:41:37;;;;;;;;;;;;;;;5.47;73.51;98960.16;4959222;28;2731;-83
2022/12/23 02:44:03;;;;;;;;;;;;;;;5.51;73.51;98960.53;4975192;28;2617;-82
2022/12/23 02:46:30;;;;;;;;;;;;;;;5.45;73.66;98964.91;4962231;28;2138;-83
2022/12/23 02:48:57;;;;;;;;;;;;;;;5.52;73.69;98975.50;4976650;28;1998;-82
2022/12/23 02:51:23;;;;;;;;;;;;;;;5.54;73.50;98972.59;4975732;28;2126;-83
2022/12/23 02:53:50;;;;;;;;;;;;;;;5.40;73.84;98974.63;4957541;28;2197;-83
2022/12/23 02:56:16;;;;;;;;;;;;;;;5.37;74.40;98983.88;4958592;28;2135;-82
2022/12/23 02:58:43;;;;;;;;;;;;;;;5.47;73.70;98991.38;4973631;28;2089;-83
2022/12/23 03:01:10;;;;;;;;;;;;;;;5.39;73.94;98986.34;4972517;28;2350;-83
2022/12/23 03:03:36;;;;;;;;;;;;;;;5.36;73.91;98990.28;4963968;28;2270;-83
2022/12/23 03:06:03;;;;;;;;;;;;;;;5.41;73.80;98986.91;4973612;28;2430;-83
2022/12/23 03:08:30;;;;;;;;;;;;;;;5.34;73.92;98994.22;4960373;28;2447;-83
2022/12/23 03:10:56;;;;;;;;;;;;;;;5.45;73.68;98994.28;4957748;28;2388;-83
2022/12/23 03:13:23;;;;;;;;;;;;;;;5.45;73.94;98996.13;4976712;28;2286;-83
2022/12/23 03:15:50;;;;;;;;;;;;;;;5.42;73.69;99002.72;4969409;28;2097;-82
2022/12/23 03:18:17;;;;;;;;;;;;;;;5.35;73.87;99003.84;4977733;28;2433;-83
2022/12/23 03:20:44;;;;;;;;;;;;;;;5.46;73.68;99005.75;4973921;28;2446;-82
2022/12/23 03:23:10;;;;;;;;;;;;;;;5.34;74.13;99002.22;4975953;28;2160;-83
2022/12/23 03:25:37;;;;;;;;;;;;;;;5.33;74.21;98998.75;4973721;28;2129;-82
2022/12/23 03:28:03;;;;;;;;;;;;;;;5.40;73.98;99001.31;4963413;28;2189;-84
2022/12/23 03:30:30;;;;;;;;;;;;;;;5.30;74.18;98996.50;4978430;28;2188;-81
2022/12/23 03:32:56;;;;;;;;;;;;;;;5.42;73.86;99001.94;4977744;28;2348;-82
2022/12/23 03:35:23;;;;;;;;;;;;;;;5.41;74.06;99002.94;4977499;28;2358;-82
2022/12/23 03:37:49;;;;;;;;;;;;;;;5.41;73.95;99008.28;4963008;28;2091;-83
2022/12/23 03:40:16;;;;;;;;;;;;;;;5.49;73.59;99012.50;4978312;28;2011;-83
2022/12/23 03:42:42;;;;;;;;;;;;;;;5.46;73.72;99005.75;4960874;28;2611;-82
2022/12/23 03:45:09;;;;;;;;;;;;;;;5.39;73.93;99002.38;4978550;28;2835;-83
2022/12/23 03:47:36;;;;;;;;;;;;;;;5.45;73.74;99004.16;4960598;28;2134;-83
2022/12/23 03:50:03;;;;;;;;;;;;;;;5.54;73.41;99010.81;4961370;28;1989;-83
2022/12/23 03:52:29;;;;;;;;;;;;;;;5.51;73.56;99005.09;4959365;28;2161;-84
2022/12/23 03:54:56;;;;;;;;;;;;;;;5.52;73.27;99004.06;4965117;28;2016;-81
2022/12/23 03:57:23;;;;;;;;;;;;;;;5.39;73.71;98999.69;4978742;28;2431;-84
2022/12/23 03:59:50;;;;;;;;;;;;;;;5.49;73.70;99010.66;4977620;28;2243;-81
2022/12/23 04:02:17;;;;;;;;;;;;;;;5.48;73.50;99014.38;4977422;28;2515;-85
2022/12/23 04:04:43;;;;;;;;;;;;;;;5.37;73.94;99018.59;4960414;28;2028;-82
2022/12/23 04:07:10;;;;;;;;;;;;;;;5.49;73.61;99016.00;4960596;28;2642;-82
2022/12/23 04:09:36;;;;;;;;;;;;;;;5.52;73.36;99012.06;4967682;28;2120;-82
2022/12/23 04:12:03;;;;;;;;;;;;;;;5.57;73.24;99021.03;4976086;28;2537;-83
2022/12/23 04:14:30;;;;;;;;;;;;;;;5.43;73.66;99020.38;4959539;28;2040;-82
2022/12/23 04:16:57;;;;;;;;;;;;;;;5.45;73.78;99023.66;4959759;28;2101;-82
2022/12/23 04:19:23;;;;;;;;;;;;;;;5.45;73.58;99023.66;4961211;28;2439;-80
2022/12/23 04:21:50;;;;;;;;;;;;;;;5.56;73.37;99021.25;4977422;28;2126;-82
2022/12/23 04:24:16;;;;;;;;;;;;;;;5.61;73.15;99024.88;4975991;28;2115;-81
2022/12/23 04:26:43;;;;;;;;;;;;;;;5.63;72.88;99022.00;4977385;28;2156;-82
2022/12/23 04:29:09;;;;;;;;;;;;;;;5.53;73.45;99027.03;4979038;28;2378;-81
2022/12/23 04:31:36;;;;;;;;;;;;;;;5.60;72.98;99028.59;4977654;28;2395;-81
2022/12/23 04:34:03;;;;;;;;;;;;;;;5.52;73.54;99034.25;4958012;28;2237;-82
2022/12/23 04:36:30;;;;;;;;;;;;;;;5.52;73.43;99042.25;4978239;28;2439;-82
2022/12/23 04:38:56;;;;;;;;;;;;;;;5.64;72.99;99034.31;4961996;28;2061;-80
2022/12/23 04:41:23;;;;;;;;;;;;;;;5.59;73.16;99040.34;4974631;28;2295;-81
2022/12/23 04:43:50;;;;;;;;;;;;;;;5.63;72.93;99046.84;4942714;28;2026;-81
2022/12/23 04:46:16;;;;;;;;;;;;;;;5.61;72.96;99043.56;4977895;28;2411;-81
2022/12/23 04:48:43;;;;;;;;;;;;;;;5.55;73.24;99044.47;4961021;28;2034;-83
2022/12/23 04:51:10;;;;;;;;;;;;;;;5.68;72.72;99057.69;4977144;28;2918;-80
2022/12/23 04:53:37;;;;;;;;;;;;;;;5.57;73.20;99061.09;4955162;28;2441;-81
2022/12/23 04:56:03;;;;;;;;;;;;;;;5.66;72.88;99066.97;4974597;28;2084;-82
2022/12/23 04:58:30;;;;;;;;;;;;;;;5.67;72.73;99063.25;4962600;28;2416;-82
2022/12/23 05:00:56;;;;;;;;;;;;;;;5.66;72.94;99064.28;4956428;28;2201;-83
2022/12/23 05:03:23;;;;;;;;;;;;;;;5.61;72.85;99067.63;4974581;28;2173;-82
2022/12/23 05:05:49;;;;;;;;;;;;;;;5.61;73.10;99074.81;4957190;28;2480;-81
2022/12/23 05:08:16;;;;;;;;;;;;;;;5.68;72.74;99076.38;4975801;28;2590;-83
2022/12/23 05:10:42;;;;;;;;;;;;;;;5.73;72.81;99083.72;4972614;28;2576;-84
2022/12/23 05:13:09;;;;;;;;;;;;;;;5.68;72.76;99083.59;4957245;28;2191;-82
2022/12/23 05:15:36;;;;;;;;;;;;;;;5.74;72.52;99084.56;4956774;28;2321;-80
2022/12/23 05:18:02;;;;;;;;;;;;;;;5.70;72.94;99086.84;4972122;28;2169;-80
2022/12/23 05:20:29;;;;;;;;;;;;;;;5.67;72.80;99084.59;4965182;28;2321;-81
2022/12/23 05:22:55;;;;;;;;;;;;;;;5.77;72.42;99084.09;4977274;28;2398;-81
2022/12/23 05:25:22;;;;;;;;;;;;;;;5.71;72.79;99083.13;4968198;28;2545;-79
2022/12/23 05:27:48;;;;;;;;;;;;;;;5.67;72.67;99088.09;4982965;28;2189;-81
2022/12/23 05:30:15;;;;;;;;;;;;;;;5.63;72.94;99080.75;4965383;28;2235;-79
2022/12/23 05:32:41;;;;;;;;;;;;;;;5.72;72.64;99087.44;4969286;28;2273;-81
2022/12/23 05:35:08;;;;;;;;;;;;;;;5.75;72.61;99095.00;4980751;28;2666;-81
2022/12/23 05:37:34;;;;;;;;;;;;;;;5.78;72.70;99107.91;4961594;28;2780;-81
2022/12/23 05:40:01;;;;;;;;;;;;;;;5.86;72.25;99112.16;4985341;28;2329;-81
2022/12/23 05:42:27;;;;;;;;;;;;;;;5.81;72.25;99106.66;4967068;28;2190;-80
2022/12/23 05:44:54;;;;;;;;;;;;;;;5.90;71.90;99110.66;4971124;28;2111;-80
2022/12/23 05:47:21;;;;;;;;;;;;;;;5.81;72.34;99112.81;4969503;28;2079;-80
2022/12/23 05:49:47;;;;;;;;;;;;;;;5.81;72.15;99115.47;4970338;28;2194;-81
2022/12/23 05:52:14;;;;;;;;;;;;;;;5.72;72.67;99121.34;4987130;28;2204;-80
2022/12/23 05:54:40;;;;;;;;;;;;;;;5.72;72.75;99114.16;4968545;28;3346;-81
2022/12/23 05:57:07;;;;;;;;;;;;;;;5.79;72.37;99124.75;4982324;28;2157;-79
2022/12/23 05:59:33;;;;;;;;;;;;;;;5.95;71.91;99128.72;4989142;28;2054;-79
2022/12/23 06:02:00;;;;;;;;;;;;;;;5.81;72.18;99134.19;4985891;28;1868;-81
2022/12/23 06:04:26;;;;;;;;;;;;;;;5.99;71.69;99132.56;4963203;28;2241;-81
2022/12/23 06:06:53;;;;;;;;;;;;;;;5.94;72.17;99143.09;4984592;28;2180;-80
2022/12/23 06:09:19;;;;;;;;;;;;;;;5.99;71.72;99133.38;4987958;28;2035;-80
2022/12/23 06:11:46;;;;;;;;;;;;;;;5.88;72.01;99142.13;4987560;28;1853;-81
2022/12/23 06:14:13;;;;;;;;;;;;;;;5.85;72.05;99154.09;4989552;28;1114;-80
2022/12/23 06:16:39;;;;;;;;;;;;;;;5.90;71.86;99143.53;4965163;28;2106;-80
2022/12/23 06:19:06;;;;;;;;;;;;;;;5.84;72.03;99154.28;4982811;28;2183;-80
2022/12/23 06:21:32;;;;;;;;;;;;;;;5.96;71.71;99157.06;4988054;28;1617;-79
2022/12/23 06:23:59;;;;;;;;;;;;;;;5.94;71.93;99164.50;4969973;28;2268;-79
2022/12/23 06:26:25;;;;;;;;;;;;;;;5.98;71.57;99171.03;4968145;28;2039;-79
2022/12/23 06:28:52;;;;;;;;;;;;;;;5.90;71.62;99172.09;4978227;28;2078;-80
2022/12/23 06:31:18;;;;;;;;;;;;;;;5.93;71.79;99182.38;4959960;28;2807;-81
2022/12/23 06:33:45;;;;;;;;;;;;;;;5.98;71.83;99187.88;4979213;28;1125;-80
2022/12/23 06:36:12;;;;;;;;;;;;;;;6.04;71.43;99194.19;4963340;28;2103;-79
2022/12/23 06:38:38;;;;;;;;;;;;;;;5.97;71.54;99196.13;4967992;28;2162;-80
2022/12/23 06:41:05;;;;;;;;;;;;;;;5.98;71.64;99208.47;4971582;28;2051;-79
2022/12/23 06:43:31;;;;;;;;;;;;;;;5.99;71.73;99210.88;4985560;28;1212;-80
2022/12/23 06:45:58;;;;;;;;;;;;;;;5.98;71.77;99205.78;4983457;28;2102;-79
2022/12/23 06:48:24;;;;;;;;;;;;;;;5.97;71.81;99215.66;4979175;28;2207;-79
2022/12/23 06:50:51;;;;;;;;;;;;;;;6.01;71.66;99219.50;4963139;28;2202;-80
2022/12/23 06:53:18;;;;;;;;;;;;;;;6.03;71.32;99221.94;4978824;28;1709;-79
2022/12/23 06:55:44;;;;;;;;;;;;;;;6.09;71.07;99221.91;4965168;28;2078;-80
2022/12/23 06:58:11;;;;;;;;;;;;;;;6.03;71.41;99217.44;4962337;28;2170;-80
2022/12/23 07:00:37;;;;;;;;;;;;;;;5.92;71.69;99223.50;4966870;28;2404;-80
2022/12/23 07:03:04;;;;;;;;;;;;;;;5.96;71.87;99227.38;4960391;28;1229;-80
2022/12/23 07:05:30;;;;;;;;;;;;;;;5.98;71.58;99233.31;4962785;28;2189;-81
2022/12/23 07:07:57;;;;;;;;;;;;;;;6.03;71.48;99241.50;4963058;28;2020;-79
2022/12/23 07:10:23;;;;;;;;;;;;;;;6.06;71.33;99242.88;4965517;28;1925;-79
2022/12/23 07:12:50;;;;;;;;;;;;;;;6.13;71.26;99247.13;4980294;28;2156;-81
2022/12/23 07:15:16;;;;;;;;;;;;;;;6.07;71.28;99256.03;4972477;28;2036;-79
2022/12/23 07:17:43;;;;;;;;;;;;;;;6.00;71.44;99257.13;4967515;28;2189;-79
2022/12/23 07:20:11;;;;;;;;;;;;;;;6.11;71.07;99261.75;4979097;28;2203;-79
2022/12/23 07:22:38;;;;;;;;;;;;;;;6.14;71.09;99264.78;4966053;28;2118;-79
2022/12/23 07:25:04;;;;;;;;;;;;;;;6.10;71.17;99270.81;4967282;28;1999;-79
2022/12/23 07:27:31;;;;;;;;;;;;;;;6.10;71.10;99279.66;4986997;28;2267;-80
2022/12/23 07:29:58;;;;;;;;;;;;;;;6.06;71.57;99280.31;4964493;28;2330;-81
2022/12/23 07:32:24;;;;;;;;;;;;;;;6.13;71.36;99284.56;4972212;28;2173;-79
2022/12/23 07:34:51;;;;;;;;;;;;;;;6.11;71.23;99289.31;4964157;28;1843;-80
2022/12/23 07:37:17;;;;;;;;;;;;;;;6.20;70.76;99289.84;4969456;28;2165;-80
2022/12/23 07:39:44;;;;;;;;;;;;;;;6.07;71.26;99292.66;4969354;28;1658;-80
2022/12/23 07:42:11;;;;;;;;;;;;;;;6.03;71.34;99297.63;4981244;28;1503;-80
2022/12/23 07:44:38;;;;;;;;;;;;;;;6.12;71.21;99307.00;4970561;28;1580;-80
2022/12/23 07:47:05;;;;;;;;;;;;;;;6.15;71.00;99311.09;4976390;28;1274;-80
2022/12/23 07:49:31;;;;;;;;;;;;;;;6.11;71.03;99315.22;4964225;28;1777;-81
2022/12/23 07:51:58;;;;;;;;;;;;;;;6.18;71.02;99310.66;4956997;28;2168;-79
2022/12/23 07:54:24;;;;;;;;;;;;;;;6.19;70.84;99322.16;4959891;28;2265;-81
2022/12/23 07:56:51;;;;;;;;;;;;;;;6.19;71.08;99322.16;4973418;28;2059;-81
2022/12/23 07:59:17;;;;;;;;;;;;;;;6.15;70.78;99327.13;4957640;28;2286;-80
2022/12/23 08:01:44;;;;;;;;;;;;;;;6.12;71.48;99332.91;4960314;28;2156;-80
2022/12/23 08:04:10;;;;;;;;;;;;;;;6.09;71.10;99331.50;4958329;28;2356;-82
2022/12/23 08:06:37;;;;;;;;;;;;;;;6.23;70.81;99334.03;4957661;28;2860;-81
2022/12/23 08:09:05;;;;;;;;;;;;;;;6.14;71.08;99339.66;4958864;28;2101;-80
2022/12/23 08:11:31;;;;;;;;;;;;;;;6.19;70.67;99341.69;4956711;28;2042;-81
2022/12/23 08:13:58;;;;;;;;;;;;;;;6.20;70.98;99348.66;4958914;28;2145;-80
2022/12/23 08:16:25;;;;;;;;;;;;;;;6.20;70.93;99345.16;4972086;28;2053;-81
2022/12/23 08:18:51;;;;;;;;;;;;;;;6.16;70.99;99343.97;4962223;28;1955;-80
2022/12/23 08:21:18;;;;;;;;;;;;;;;6.20;70.69;99345.16;4960363;28;2353;-79
2022/12/23 08:23:45;;;;;;;;;;;;;;;6.12;71.05;99340.94;4956667;28;1989;-80
2022/12/23 08:26:12;;;;;;;;;;;;;;;6.22;70.74;99351.13;4957844;28;2152;-80
2022/12/23 08:28:39;;;;;;;;;;;;;;;6.21;70.62;99347.63;4957418;28;2355;-80
2022/12/23 08:31:05;;;;;;;;;;;;;;;6.20;70.79;99354.00;4954410;28;2473;-79
2022/12/23 08:33:31;;;;;;;;;;;;;;;6.22;70.78;99356.47;4972105;28;2077;-80
2022/12/23 08:35:58;;;;;;;;;;;;;;;6.24;70.85;99355.22;4962499;28;2469;-80
2022/12/23 08:38:25;;;;;;;;;;;;;;;6.26;70.69;99360.31;4955217;28;2493;-80
2022/12/23 08:40:51;;;;;;;;;;;;;;;6.23;70.59;99360.75;4957145;28;2146;-81
2022/12/23 08:43:18;;;;;;;;;;;;;;;6.31;70.29;99355.94;4955696;28;2081;-82
2022/12/23 08:45:44;;;;;;;;;;;;;;;6.27;70.55;99353.97;4957733;28;2189;-81
2022/12/23 08:48:11;;;;;;;;;;;;;;;6.22;70.89;99365.31;4960762;28;2358;-80
2022/12/23 08:50:38;;;;;;;;;;;;;;;6.27;70.29;99372.69;4969689;28;2263;-82
2022/12/23 08:53:04;;;;;;;;;;;;;;;6.31;70.39;99371.19;4956080;28;2183;-81
2022/12/23 08:55:31;;;;;;;;;;;;;;;6.31;70.51;99374.66;4955541;28;2436;-81
2022/12/23 08:57:57;;;;;;;;;;;;;;;6.33;70.48;99377.94;4972142;28;2450;-78
2022/12/23 09:00:24;;;;;;;;;;;;;;;6.23;70.91;99374.94;4974058;28;2625;-81
2022/12/23 09:02:51;;;;;;;;;;;;;;;6.27;70.91;99378.03;4973368;28;2258;-81
2022/12/23 09:05:17;;;;;;;;;;;;;;;6.33;70.16;99380.63;4957295;28;2352;-81
2022/12/23 09:07:44;;;;;;;;;;;;;;;6.36;70.11;99382.84;4975170;28;2274;-81
2022/12/23 09:10:10;;;;;;;;;;;;;;;6.28;70.41;99387.66;4958193;28;2747;-80
2022/12/23 09:12:37;;;;;;;;;;;;;;;6.30;70.38;99388.28;4973054;28;2050;-81
2022/12/23 09:15:03;;;;;;;;;;;;;;;6.31;70.48;99387.22;4975094;28;2249;-81
2022/12/23 09:17:30;;;;;;;;;;;;;;;6.31;70.50;99384.56;4958298;28;1979;-81
2022/12/23 09:19:56;;;;;;;;;;;;;;;6.31;70.47;99384.56;4974330;28;2107;-79
2022/12/23 09:22:23;;;;;;;;;;;;;;;6.33;70.43;99382.50;4957647;28;2151;-81
2022/12/23 09:24:49;;;;;;;;;;;;;;;6.27;70.49;99388.72;4972801;28;2787;-81
2022/12/23 09:27:16;;;;;;;;;;;;;;;6.35;70.46;99388.41;4963055;28;2229;-82
2022/12/23 09:29:43;;;;;;;;;;;;;;;6.35;70.12;99393.75;4964517;28;2271;-81
2022/12/23 09:32:09;;;;;;;;;;;;;;;6.34;70.15;99390.28;4972073;28;2258;-80
2022/12/23 09:34:36;;;;;;;;;;;;;;;6.39;70.10;99397.66;4959306;28;2060;-81
2022/12/23 09:37:03;;;;;;;;;;;;;;;6.38;70.03;99401.34;4978117;28;2126;-81
2022/12/23 09:39:29;;;;;;;;;;;;;;;6.32;70.29;99397.72;4983489;28;2547;-82
2022/12/23 09:42:00;;;;;;;;;;;;;;;6.31;70.39;99396.06;4963399;28;2280;-82
2022/12/23 09:44:26;;;;;;;;;;;;;;;6.33;70.26;99395.84;4984685;28;1856;-80
2022/12/23 09:46:53;;;;;;;;;;;;;;;6.37;70.17;99400.53;4983393;28;2117;-81
2022/12/23 09:49:20;;;;;;;;;;;;;;;6.38;70.36;99396.00;4980745;28;1945;-81
2022/12/23 09:51:46;;;;;;;;;;;;;;;6.29;70.65;99400.81;4986051;28;2135;-80
2022/12/23 09:54:13;;;;;;;;;;;;;;;6.37;70.42;99408.56;4983053;28;2094;-81
2022/12/23 09:56:39;;;;;;;;;;;;;;;6.33;70.43;99410.03;4960026;28;2027;-82
2022/12/23 09:59:06;;;;;;;;;;;;;;;6.35;70.26;99409.81;4962166;28;2286;-80
2022/12/23 10:01:33;;;;;;;;;;;;;;;6.37;70.47;99410.41;4966609;28;2184;-81
2022/12/23 10:04:00;;;;;;;;;;;;;;;6.36;70.42;99416.81;4971566;28;1685;-82
2022/12/23 10:06:26;;;;;;;;;;;;;;;6.34;70.47;99419.69;4966310;28;1980;-83
2022/12/23 10:08:53;;;;;;;;;;;;;;;6.30;70.20;99417.69;4964560;28;2054;-81
2022/12/23 10:11:19;;;;;;;;;;;;;;;6.40;70.40;99415.31;4977267;28;2321;-82
2022/12/23 10:13:47;;;;;;;;;;;;;;;6.47;69.99;99407.22;4978598;28;2100;-82
2022/12/23 10:16:13;;;;;;;;;;;;;;;6.44;69.97;99418.38;4977096;28;2302;-82
2022/12/23 10:18:40;;;;;;;;;;;;;;;6.35;70.55;99418.69;4961558;28;2022;-82
2022/12/23 10:21:06;;;;;;;;;;;;;;;6.50;69.84;99418.31;4978499;28;2825;-81
2022/12/23 10:23:33;;;;;;;;;;;;;;;6.40;70.32;99415.31;4988701;28;1859;-82
2022/12/23 10:25:59;;;;;;;;;;;;;;;6.33;70.61;99422.59;4967326;28;2154;-83
2022/12/23 10:28:26;;;;;;;;;;;;;;;6.43;70.09;99424.78;4964515;28;1665;-82
2022/12/23 10:30:52;;;;;;;;;;;;;;;6.49;69.86;99423.88;4960643;28;2184;-84
2022/12/23 10:33:19;;;;;;;;;;;;;;;6.34;70.53;99421.56;4980920;28;1949;-82
2022/12/23 10:35:45;;;;;;;;;;;;;;;6.40;70.51;99420.66;4980023;28;2306;-82
2022/12/23 10:38:12;;;;;;;;;;;;;;;6.32;70.49;99431.63;4969926;28;2415;-82
2022/12/23 10:40:39;;;;;;;;;;;;;;;6.25;70.98;99431.72;4977961;28;2149;-82
2022/12/23 10:43:05;;;;;;;;;;;;;;;6.22;71.09;99418.78;4959185;28;2240;-83
2022/12/23 10:45:32;;;;;;;;;;;;;;;6.21;71.27;99424.34;4970868;28;2247;-81
2022/12/23 10:47:58;;;;;;;;;;;;;;;6.21;71.13;99422.50;4958968;28;2357;-82
2022/12/23 10:50:25;;;;;;;;;;;;;;;6.07;71.78;99429.78;4974772;28;2351;-82
2022/12/23 10:52:52;;;;;;;;;;;;;;;6.11;71.54;99435.53;4958188;28;2559;-83
2022/12/23 10:55:18;;;;;;;;;;;;;;;6.22;71.42;99429.47;4968698;28;2710;-84
2022/12/23 10:57:45;;;;;;;;;;;;;;;6.15;71.28;99442.09;4974392;28;2308;-82
2022/12/23 11:00:11;;;;;;;;;;;;;;;6.20;71.26;99431.53;4973773;28;2251;-83
2022/12/23 11:02:38;;;;;;;;;;;;;;;6.14;71.78;99441.25;4970677;28;2233;-81
2022/12/23 11:05:05;;;;;;;;;;;;;;;6.06;72.23;99443.38;4957011;28;2232;-82
2022/12/23 11:07:31;;;;;;;;;;;;;;;6.02;72.03;99440.31;4973376;28;2260;-82
2022/12/23 11:09:58;;;;;;;;;;;;;;;6.13;71.70;99439.63;4972749;28;2184;-82
2022/12/23 11:12:24;;;;;;;;;;;;;;;6.25;71.17;99445.06;4972791;28;2266;-81
2022/12/23 11:14:51;;;;;;;;;;;;;;;6.02;72.15;99439.50;4968465;28;2380;-82
2022/12/23 11:17:18;;;;;;;;;;;;;;;5.98;72.29;99443.66;4969608;28;2264;-83
2022/12/23 11:19:45;;;;;;;;;;;;;;;6.10;71.90;99442.72;4972428;28;2505;-81
2022/12/23 11:22:12;;;;;;;;;;;;;;;6.04;72.31;99443.59;4970526;28;2275;-81
2022/12/23 11:24:38;;;;;;;;;;;;;;;6.04;72.38;99450.81;4966792;28;2225;-83
2022/12/23 11:27:05;;;;;;;;;;;;;;;6.11;71.97;99452.38;4969547;28;2430;-84
2022/12/23 11:29:31;;;;;;;;;;;;;;;5.95;72.32;99444.91;4956321;28;2345;-81
2022/12/23 11:31:58;;;;;;;;;;;;;;;5.96;72.73;99449.19;4973076;28;2288;-82
2022/12/23 11:34:25;;;;;;;;;;;;;;;5.92;72.84;99451.47;4973870;28;2507;-83
2022/12/23 11:36:51;;;;;;;;;;;;;;;5.83;73.14;99449.28;4975095;28;2243;-81
2022/12/23 11:39:18;;;;;;;;;;;;;;;6.12;72.05;99462.06;4951605;28;2473;-81
2022/12/23 11:41:46;;;;;;;;;;;;;;;5.94;72.90;99450.44;4970987;28;2359;-80
2022/12/23 11:44:13;;;;;;;;;;;;;;;5.93;72.77;99449.63;4959755;28;2297;-81
2022/12/23 11:46:39;;;;;;;;;;;;;;;5.94;72.78;99447.78;4975402;28;2169;-81
2022/12/23 11:49:06;;;;;;;;;;;;;;;5.80;73.36;99447.03;4951722;28;2209;-82
2022/12/23 11:51:33;;;;;;;;;;;;;;;5.79;73.38;99448.84;4962013;28;2172;-84
2022/12/23 11:54:00;;;;;;;;;;;;;;;5.87;73.21;99458.47;4956819;28;2269;-83
2022/12/23 11:56:26;;;;;;;;;;;;;;;5.90;73.38;99452.72;4961796;28;2242;-82
2022/12/23 11:58:53;;;;;;;;;;;;;;;5.85;73.43;99450.69;4977830;28;2964;-82
2022/12/23 12:01:20;;;;;;;;;;;;;;;5.87;73.21;99455.81;4980425;28;2149;-82
2022/12/23 12:03:46;;;;;;;;;;;;;;;5.71;73.87;99457.16;4953833;28;2448;-82
2022/12/23 12:06:13;;;;;;;;;;;;;;;5.77;73.71;99458.97;4956882;28;2310;-84
2022/12/23 12:08:40;;;;;;;;;;;;;;;5.93;73.37;99452.31;4973084;28;2203;-82
2022/12/23 12:11:06;;;;;;;;;;;;;;;5.72;74.02;99455.31;4977408;28;2222;-82
2022/12/23 12:13:33;;;;;;;;;;;;;;;5.69;74.16;99453.88;4975938;28;2422;-83
2022/12/23 12:16:00;;;;;;;;;;;;;;;5.63;74.40;99462.75;4960588;28;2277;-82
2022/12/23 12:18:26;;;;;;;;;;;;;;;5.63;74.54;99460.06;4972265;28;3069;-83
2022/12/23 12:20:53;;;;;;;;;;;;;;;5.60;74.43;99461.31;4982315;28;2506;-83
2022/12/23 12:23:19;;;;;;;;;;;;;;;5.70;74.23;99460.84;4986482;28;1834;-82
2022/12/23 12:25:46;;;;;;;;;;;;;;;5.67;74.35;99467.44;4969413;28;1541;-82
2022/12/23 12:28:12;;;;;;;;;;;;;;;5.60;74.52;99458.66;4971484;28;2151;-84
2022/12/23 12:30:39;;;;;;;;;;;;;;;5.65;74.61;99468.69;4967944;28;2286;-83
2022/12/23 12:33:07;;;;;;;;;;;;;;;5.64;74.60;99464.38;4978592;28;2061;-82
2022/12/23 12:35:34;;;;;;;;;;;;;;;5.56;75.00;99472.63;4966084;28;1303;-84
2022/12/23 12:38:01;;;;;;;;;;;;;;;5.63;74.79;99466.22;4990900;28;2207;-83
2022/12/23 12:40:27;;;;;;;;;;;;;;;5.60;74.81;99469.31;4968252;28;1293;-83
2022/12/23 12:42:54;;;;;;;;;;;;;;;5.60;74.70;99469.31;4986515;28;2223;-83
2022/12/23 12:45:20;;;;;;;;;;;;;;;5.63;74.66;99468.91;4986948;28;2428;-84
2022/12/23 12:47:47;;;;;;;;;;;;;;;5.65;74.45;99477.53;4976405;28;1909;-83
2022/12/23 12:50:13;;;;;;;;;;;;;;;5.54;75.02;99482.72;4966081;28;1617;-83
2022/12/23 12:52:40;;;;;;;;;;;;;;;5.58;75.15;99475.91;4964019;28;2160;-83
2022/12/23 12:55:07;;;;;;;;;;;;;;;5.58;75.15;99474.06;4985197;28;2698;-83
2022/12/23 12:57:33;;;;;;;;;;;;;;;5.58;74.88;99475.91;4934398;28;1486296;-83
2022/12/23 13:00:01;;;;;;;;;;;;;;;5.58;74.99;99476.72;4988443;28;2427;-83
2022/12/23 13:02:28;;;;;;;;;;;;;;;5.54;75.29;99472.84;4985376;28;2262;-84
2022/12/23 13:04:54;;;;;;;;;;;;;;;5.57;75.20;99468.94;4974756;28;2208;-82
2022/12/23 13:07:21;;;;;;;;;;;;;;;5.60;75.20;99473.84;4983368;28;2163;-82
2022/12/23 13:09:47;;;;;;;;;;;;;;;5.57;75.11;99477.78;4988136;28;1213;-82
2022/12/23 13:12:14;;;;;;;;;;;;;;;5.58;75.00;99476.72;4990383;28;2400;-81
2022/12/23 13:14:41;;;;;;;;;;;;;;;5.55;75.27;99469.13;4985788;28;2369;-83
2022/12/23 13:17:08;;;;;;;;;;;;;;;5.58;75.20;99471.38;4967899;28;2813;-81
2022/12/23 13:19:35;;;;;;;;;;;;;;;5.60;75.11;99472.00;4979012;28;2396;-82
2022/12/23 13:22:01;;;;;;;;;;;;;;;5.59;75.17;99467.69;4971091;28;2759;-83
2022/12/23 13:24:28;;;;;;;;;;;;;;;5.57;75.44;99467.09;4979232;28;2039;-82
2022/12/23 13:26:54;;;;;;;;;;;;;;;5.57;75.18;99467.09;4984863;28;997;-83
2022/12/23 13:29:21;;;;;;;;;;;;;;;5.64;75.20;99475.06;4971571;28;2453;-84